sensor_id;sensor_type;location;lat;lon;timestamp;temperature;humidity
67101;DHT22;54019;61.746;16.106;2023-01-08T00:00:54;20.90;21.80
67101;DHT22;54019;61.746;16.106;2023-01-08T00:03:21;20.80;21.80
67101;DHT22;54019;61.746;16.106;2023-01-08T00:05:47;20.80;21.90
67101;DHT22;54019;61.746;16.106;2023-01-08T00:08:13;20.80;22.00
67101;DHT22;54019;61.746;16.106;2023-01-08T00:10:39;20.80;22.10
67101;DHT22;54019;61.746;16.106;2023-01-08T00:13:06;20.70;22.10
67101;DHT22;54019;61.746;16.106;2023-01-08T00:15:32;20.70;22.10
67101;DHT22;54019;61.746;16.106;2023-01-08T00:17:58;20.70;22.20
67101;DHT22;54019;61.746;16.106;2023-01-08T00:20:26;20.60;22.10
67101;DHT22;54019;61.746;16.106;2023-01-08T00:22:52;20.60;22.20
67101;DHT22;54019;61.746;16.106;2023-01-08T00:25:18;20.60;22.20
67101;DHT22;54019;61.746;16.106;2023-01-08T00:27:44;20.60;22.20
67101;DHT22;54019;61.746;16.106;2023-01-08T00:30:11;20.60;22.10
67101;DHT22;54019;61.746;16.106;2023-01-08T00:32:37;20.60;22.00
67101;DHT22;54019;61.746;16.106;2023-01-08T00:35:04;20.70;22.10
67101;DHT22;54019;61.746;16.106;2023-01-08T00:37:31;20.70;22.00
67101;DHT22;54019;61.746;16.106;2023-01-08T00:39:57;20.80;22.00
67101;DHT22;54019;61.746;16.106;2023-01-08T00:42:23;20.80;21.90
67101;DHT22;54019;61.746;16.106;2023-01-08T00:44:49;20.80;21.80
67101;DHT22;54019;61.746;16.106;2023-01-08T00:47:14;20.90;21.70
67101;DHT22;54019;61.746;16.106;2023-01-08T00:49:40;20.90;21.90
67101;DHT22;54019;61.746;16.106;2023-01-08T00:52:06;20.90;21.80
67101;DHT22;54019;61.746;16.106;2023-01-08T00:54:33;20.80;21.70
67101;DHT22;54019;61.746;16.106;2023-01-08T00:56:59;20.80;21.90
67101;DHT22;54019;61.746;16.106;2023-01-08T00:59:25;20.80;21.90
67101;DHT22;54019;61.746;16.106;2023-01-08T01:01:50;20.70;21.90
67101;DHT22;54019;61.746;16.106;2023-01-08T01:04:16;20.70;22.10
67101;DHT22;54019;61.746;16.106;2023-01-08T01:06:42;20.60;22.10
67101;DHT22;54019;61.746;16.106;2023-01-08T01:09:08;20.60;22.10
67101;DHT22;54019;61.746;16.106;2023-01-08T01:11:35;20.60;22.10
67101;DHT22;54019;61.746;16.106;2023-01-08T01:14:01;20.50;22.10
67101;DHT22;54019;61.746;16.106;2023-01-08T01:16:26;20.50;22.10
67101;DHT22;54019;61.746;16.106;2023-01-08T01:18:52;20.60;22.10
67101;DHT22;54019;61.746;16.106;2023-01-08T01:21:22;20.60;22.10
67101;DHT22;54019;61.746;16.106;2023-01-08T01:23:48;20.70;22.00
67101;DHT22;54019;61.746;16.106;2023-01-08T01:26:15;20.70;22.10
67101;DHT22;54019;61.746;16.106;2023-01-08T01:28:42;20.80;22.00
67101;DHT22;54019;61.746;16.106;2023-01-08T01:31:09;20.80;21.80
67101;DHT22;54019;61.746;16.106;2023-01-08T01:33:36;20.80;21.80
67101;DHT22;54019;61.746;16.106;2023-01-08T01:36:02;20.80;21.70
67101;DHT22;54019;61.746;16.106;2023-01-08T01:38:29;20.80;21.80
67101;DHT22;54019;61.746;16.106;2023-01-08T01:40:55;20.80;21.80
67101;DHT22;54019;61.746;16.106;2023-01-08T01:43:36;20.80;22.00
67101;DHT22;54019;61.746;16.106;2023-01-08T01:46:17;20.70;22.00
67101;DHT22;54019;61.746;16.106;2023-01-08T01:48:43;20.70;22.10
67101;DHT22;54019;61.746;16.106;2023-01-08T01:51:09;20.70;22.10
67101;DHT22;54019;61.746;16.106;2023-01-08T01:53:35;20.60;22.10
67101;DHT22;54019;61.746;16.106;2023-01-08T01:56:03;20.60;22.20
67101;DHT22;54019;61.746;16.106;2023-01-08T01:58:30;20.50;22.10
67101;DHT22;54019;61.746;16.106;2023-01-08T02:01:00;20.50;22.10
67101;DHT22;54019;61.746;16.106;2023-01-08T02:03:30;20.50;22.00
67101;DHT22;54019;61.746;16.106;2023-01-08T02:06:01;20.60;22.10
67101;DHT22;54019;61.746;16.106;2023-01-08T02:08:35;20.60;22.10
67101;DHT22;54019;61.746;16.106;2023-01-08T02:11:07;20.60;22.10
67101;DHT22;54019;61.746;16.106;2023-01-08T02:13:36;20.70;22.10
67101;DHT22;54019;61.746;16.106;2023-01-08T02:16:07;20.70;22.10
67101;DHT22;54019;61.746;16.106;2023-01-08T02:18:43;20.80;21.80
67101;DHT22;54019;61.746;16.106;2023-01-08T02:21:13;20.80;21.80
67101;DHT22;54019;61.746;16.106;2023-01-08T02:23:46;20.80;21.80
67101;DHT22;54019;61.746;16.106;2023-01-08T02:26:21;20.80;21.90
67101;DHT22;54019;61.746;16.106;2023-01-08T02:28:52;20.80;21.90
67101;DHT22;54019;61.746;16.106;2023-01-08T02:31:20;20.70;22.10
67101;DHT22;54019;61.746;16.106;2023-01-08T02:33:47;20.70;22.00
67101;DHT22;54019;61.746;16.106;2023-01-08T02:36:22;20.70;22.10
67101;DHT22;54019;61.746;16.106;2023-01-08T02:38:57;20.70;22.20
67101;DHT22;54019;61.746;16.106;2023-01-08T02:41:33;20.60;22.10
67101;DHT22;54019;61.746;16.106;2023-01-08T02:44:02;20.60;22.10
67101;DHT22;54019;61.746;16.106;2023-01-08T02:46:33;20.60;22.20
67101;DHT22;54019;61.746;16.106;2023-01-08T02:49:03;20.50;22.20
67101;DHT22;54019;61.746;16.106;2023-01-08T02:51:33;20.50;22.20
67101;DHT22;54019;61.746;16.106;2023-01-08T02:54:04;20.60;22.10
67101;DHT22;54019;61.746;16.106;2023-01-08T02:56:36;20.60;22.10
67101;DHT22;54019;61.746;16.106;2023-01-08T02:59:04;20.60;22.10
67101;DHT22;54019;61.746;16.106;2023-01-08T03:01:33;20.70;22.10
67101;DHT22;54019;61.746;16.106;2023-01-08T03:04:03;20.70;22.10
67101;DHT22;54019;61.746;16.106;2023-01-08T03:06:31;20.70;21.90
67101;DHT22;54019;61.746;16.106;2023-01-08T03:08:58;20.80;21.80
67101;DHT22;54019;61.746;16.106;2023-01-08T03:11:28;20.80;21.80
67101;DHT22;54019;61.746;16.106;2023-01-08T03:14:02;20.80;21.80
67101;DHT22;54019;61.746;16.106;2023-01-08T03:16:34;20.80;21.90
67101;DHT22;54019;61.746;16.106;2023-01-08T03:19:06;20.80;21.90
67101;DHT22;54019;61.746;16.106;2023-01-08T03:21:32;20.70;22.10
67101;DHT22;54019;61.746;16.106;2023-01-08T03:24:01;20.70;22.10
67101;DHT22;54019;61.746;16.106;2023-01-08T03:26:28;20.70;22.20
67101;DHT22;54019;61.746;16.106;2023-01-08T03:28:57;20.70;22.20
67101;DHT22;54019;61.746;16.106;2023-01-08T03:31:25;20.60;22.10
67101;DHT22;54019;61.746;16.106;2023-01-08T03:33:53;20.60;22.20
67101;DHT22;54019;61.746;16.106;2023-01-08T03:36:22;20.60;22.20
67101;DHT22;54019;61.746;16.106;2023-01-08T03:38:52;20.50;22.10
67101;DHT22;54019;61.746;16.106;2023-01-08T03:41:22;20.50;22.20
67101;DHT22;54019;61.746;16.106;2023-01-08T03:43:48;20.50;22.20
67101;DHT22;54019;61.746;16.106;2023-01-08T03:46:19;20.60;22.10
67101;DHT22;54019;61.746;16.106;2023-01-08T03:48:46;20.60;22.00
67101;DHT22;54019;61.746;16.106;2023-01-08T03:51:13;20.70;22.10
67101;DHT22;54019;61.746;16.106;2023-01-08T03:53:39;20.70;21.90
67101;DHT22;54019;61.746;16.106;2023-01-08T03:56:06;20.80;21.90
67101;DHT22;54019;61.746;16.106;2023-01-08T03:58:31;20.80;21.80
67101;DHT22;54019;61.746;16.106;2023-01-08T04:00:57;20.80;21.80
67101;DHT22;54019;61.746;16.106;2023-01-08T04:03:24;20.80;21.80
67101;DHT22;54019;61.746;16.106;2023-01-08T04:05:50;20.80;21.90
67101;DHT22;54019;61.746;16.106;2023-01-08T04:08:16;20.70;21.80
67101;DHT22;54019;61.746;16.106;2023-01-08T04:10:42;20.70;22.00
67101;DHT22;54019;61.746;16.106;2023-01-08T04:13:07;20.70;22.00
67101;DHT22;54019;61.746;16.106;2023-01-08T04:15:33;20.70;22.10
67101;DHT22;54019;61.746;16.106;2023-01-08T04:17:59;20.60;22.10
67101;DHT22;54019;61.746;16.106;2023-01-08T04:20:26;20.60;22.10
67101;DHT22;54019;61.746;16.106;2023-01-08T04:22:52;20.60;22.10
67101;DHT22;54019;61.746;16.106;2023-01-08T04:25:18;20.50;22.10
67101;DHT22;54019;61.746;16.106;2023-01-08T04:27:43;20.50;22.10
67101;DHT22;54019;61.746;16.106;2023-01-08T04:30:10;20.50;22.10
67101;DHT22;54019;61.746;16.106;2023-01-08T04:32:36;20.50;22.10
67101;DHT22;54019;61.746;16.106;2023-01-08T04:35:02;20.60;22.10
67101;DHT22;54019;61.746;16.106;2023-01-08T04:37:29;20.60;22.10
67101;DHT22;54019;61.746;16.106;2023-01-08T04:39:55;20.60;22.10
67101;DHT22;54019;61.746;16.106;2023-01-08T04:42:20;20.70;22.10
67101;DHT22;54019;61.746;16.106;2023-01-08T04:44:46;20.70;22.00
67101;DHT22;54019;61.746;16.106;2023-01-08T04:47:12;20.80;21.90
67101;DHT22;54019;61.746;16.106;2023-01-08T04:49:38;20.70;21.90
67101;DHT22;54019;61.746;16.106;2023-01-08T04:52:04;20.70;22.10
67101;DHT22;54019;61.746;16.106;2023-01-08T04:54:31;20.70;22.20
67101;DHT22;54019;61.746;16.106;2023-01-08T04:56:56;20.70;22.10
67101;DHT22;54019;61.746;16.106;2023-01-08T04:59:22;20.60;22.10
67101;DHT22;54019;61.746;16.106;2023-01-08T05:01:48;20.60;22.10
67101;DHT22;54019;61.746;16.106;2023-01-08T05:04:14;20.60;22.20
67101;DHT22;54019;61.746;16.106;2023-01-08T05:06:39;20.60;22.10
67101;DHT22;54019;61.746;16.106;2023-01-08T05:09:05;20.50;22.30
67101;DHT22;54019;61.746;16.106;2023-01-08T05:11:32;20.50;22.20
67101;DHT22;54019;61.746;16.106;2023-01-08T05:13:58;20.50;22.30
67101;DHT22;54019;61.746;16.106;2023-01-08T05:16:24;20.40;22.10
67101;DHT22;54019;61.746;16.106;2023-01-08T05:18:50;20.50;22.30
67101;DHT22;54019;61.746;16.106;2023-01-08T05:21:16;20.50;22.30
67101;DHT22;54019;61.746;16.106;2023-01-08T05:23:44;20.50;22.20
67101;DHT22;54019;61.746;16.106;2023-01-08T05:26:10;20.60;22.20
67101;DHT22;54019;61.746;16.106;2023-01-08T05:28:37;20.60;22.20
67101;DHT22;54019;61.746;16.106;2023-01-08T05:31:03;20.70;22.10
67101;DHT22;54019;61.746;16.106;2023-01-08T05:33:29;20.70;22.10
67101;DHT22;54019;61.746;16.106;2023-01-08T05:35:55;20.80;22.00
67101;DHT22;54019;61.746;16.106;2023-01-08T05:38:21;20.80;21.90
67101;DHT22;54019;61.746;16.106;2023-01-08T05:40:47;20.80;21.90
67101;DHT22;54019;61.746;16.106;2023-01-08T05:43:13;20.70;22.00
67101;DHT22;54019;61.746;16.106;2023-01-08T05:45:40;20.70;22.10
67101;DHT22;54019;61.746;16.106;2023-01-08T05:48:06;20.70;22.10
67101;DHT22;54019;61.746;16.106;2023-01-08T05:50:32;20.70;22.10
67101;DHT22;54019;61.746;16.106;2023-01-08T05:52:58;20.60;22.20
67101;DHT22;54019;61.746;16.106;2023-01-08T05:55:24;20.60;22.20
67101;DHT22;54019;61.746;16.106;2023-01-08T05:57:50;20.60;22.30
67101;DHT22;54019;61.746;16.106;2023-01-08T06:00:16;20.60;22.40
67101;DHT22;54019;61.746;16.106;2023-01-08T06:02:46;20.50;22.40
67101;DHT22;54019;61.746;16.106;2023-01-08T06:05:12;20.50;22.40
67101;DHT22;54019;61.746;16.106;2023-01-08T06:07:38;20.50;22.30
67101;DHT22;54019;61.746;16.106;2023-01-08T06:10:05;20.50;22.30
67101;DHT22;54019;61.746;16.106;2023-01-08T06:12:31;20.60;22.30
67101;DHT22;54019;61.746;16.106;2023-01-08T06:14:57;20.60;22.20
67101;DHT22;54019;61.746;16.106;2023-01-08T06:17:22;20.70;22.20
67101;DHT22;54019;61.746;16.106;2023-01-08T06:19:50;20.70;22.10
67101;DHT22;54019;61.746;16.106;2023-01-08T06:22:15;20.80;22.10
67101;DHT22;54019;61.746;16.106;2023-01-08T06:24:41;20.80;22.10
67101;DHT22;54019;61.746;16.106;2023-01-08T06:27:07;20.80;22.10
67101;DHT22;54019;61.746;16.106;2023-01-08T06:29:33;20.70;22.10
67101;DHT22;54019;61.746;16.106;2023-01-08T06:31:59;20.70;22.20
67101;DHT22;54019;61.746;16.106;2023-01-08T06:34:24;20.70;22.20
67101;DHT22;54019;61.746;16.106;2023-01-08T06:36:51;20.70;22.10
67101;DHT22;54019;61.746;16.106;2023-01-08T06:39:17;20.60;22.20
67101;DHT22;54019;61.746;16.106;2023-01-08T06:41:43;20.60;22.30
67101;DHT22;54019;61.746;16.106;2023-01-08T06:44:09;20.60;22.40
67101;DHT22;54019;61.746;16.106;2023-01-08T06:46:35;20.50;22.40
67101;DHT22;54019;61.746;16.106;2023-01-08T06:49:01;20.50;22.40
67101;DHT22;54019;61.746;16.106;2023-01-08T06:51:26;20.50;22.40
67101;DHT22;54019;61.746;16.106;2023-01-08T06:53:54;20.50;22.40
67101;DHT22;54019;61.746;16.106;2023-01-08T06:56:19;20.50;22.40
67101;DHT22;54019;61.746;16.106;2023-01-08T06:58:45;20.50;22.30
67101;DHT22;54019;61.746;16.106;2023-01-08T07:01:13;20.60;22.40
67101;DHT22;54019;61.746;16.106;2023-01-08T07:03:39;20.60;22.30
67101;DHT22;54019;61.746;16.106;2023-01-08T07:06:06;20.70;22.20
67101;DHT22;54019;61.746;16.106;2023-01-08T07:08:32;20.70;22.10
67101;DHT22;54019;61.746;16.106;2023-01-08T07:11:02;20.80;22.10
67101;DHT22;54019;61.746;16.106;2023-01-08T07:13:28;20.70;22.10
67101;DHT22;54019;61.746;16.106;2023-01-08T07:15:54;20.80;22.10
67101;DHT22;54019;61.746;16.106;2023-01-08T07:18:20;20.70;22.10
67101;DHT22;54019;61.746;16.106;2023-01-08T07:20:47;20.70;22.10
67101;DHT22;54019;61.746;16.106;2023-01-08T07:23:13;20.70;22.10
67101;DHT22;54019;61.746;16.106;2023-01-08T07:25:39;20.70;22.20
67101;DHT22;54019;61.746;16.106;2023-01-08T07:28:10;20.60;22.10
67101;DHT22;54019;61.746;16.106;2023-01-08T07:30:36;20.60;22.20
67101;DHT22;54019;61.746;16.106;2023-01-08T07:33:01;20.60;22.30
67101;DHT22;54019;61.746;16.106;2023-01-08T07:35:28;20.50;22.30
67101;DHT22;54019;61.746;16.106;2023-01-08T07:37:53;20.50;22.40
67101;DHT22;54019;61.746;16.106;2023-01-08T07:40:19;20.50;22.40
67101;DHT22;54019;61.746;16.106;2023-01-08T07:42:45;20.50;22.50
67101;DHT22;54019;61.746;16.106;2023-01-08T07:45:12;20.50;23.10
67101;DHT22;54019;61.746;16.106;2023-01-08T07:47:38;20.50;22.50
67101;DHT22;54019;61.746;16.106;2023-01-08T07:50:05;20.50;22.40
67101;DHT22;54019;61.746;16.106;2023-01-08T07:52:31;20.60;22.40
67101;DHT22;54019;61.746;16.106;2023-01-08T07:54:56;20.60;22.30
67101;DHT22;54019;61.746;16.106;2023-01-08T07:57:22;20.70;22.30
67101;DHT22;54019;61.746;16.106;2023-01-08T07:59:48;20.70;22.10
67101;DHT22;54019;61.746;16.106;2023-01-08T08:02:15;20.80;22.30
67101;DHT22;54019;61.746;16.106;2023-01-08T08:04:41;20.70;22.10
67101;DHT22;54019;61.746;16.106;2023-01-08T08:07:07;20.80;22.10
67101;DHT22;54019;61.746;16.106;2023-01-08T08:09:32;20.80;22.10
67101;DHT22;54019;61.746;16.106;2023-01-08T08:11:58;20.70;22.20
67101;DHT22;54019;61.746;16.106;2023-01-08T08:14:24;20.70;22.30
67101;DHT22;54019;61.746;16.106;2023-01-08T08:16:49;20.60;22.30
67101;DHT22;54019;61.746;16.106;2023-01-08T08:19:17;20.60;22.30
67101;DHT22;54019;61.746;16.106;2023-01-08T08:21:42;20.60;22.40
67101;DHT22;54019;61.746;16.106;2023-01-08T08:24:08;20.60;22.50
67101;DHT22;54019;61.746;16.106;2023-01-08T08:26:34;20.50;22.50
67101;DHT22;54019;61.746;16.106;2023-01-08T08:29:00;20.50;22.60
67101;DHT22;54019;61.746;16.106;2023-01-08T08:31:26;20.50;22.50
67101;DHT22;54019;61.746;16.106;2023-01-08T08:33:51;20.50;22.50
67101;DHT22;54019;61.746;16.106;2023-01-08T08:36:18;20.60;22.40
67101;DHT22;54019;61.746;16.106;2023-01-08T08:38:44;20.60;22.40
67101;DHT22;54019;61.746;16.106;2023-01-08T08:41:10;20.60;22.40
67101;DHT22;54019;61.746;16.106;2023-01-08T08:43:36;20.70;22.40
67101;DHT22;54019;61.746;16.106;2023-01-08T08:46:01;20.70;22.30
67101;DHT22;54019;61.746;16.106;2023-01-08T08:48:27;20.80;22.10
67101;DHT22;54019;61.746;16.106;2023-01-08T08:50:53;20.80;22.10
67101;DHT22;54019;61.746;16.106;2023-01-08T08:53:20;20.80;22.20
67101;DHT22;54019;61.746;16.106;2023-01-08T08:55:46;20.80;22.20
67101;DHT22;54019;61.746;16.106;2023-01-08T08:58:12;20.70;22.30
67101;DHT22;54019;61.746;16.106;2023-01-08T09:00:39;20.70;22.30
67101;DHT22;54019;61.746;16.106;2023-01-08T09:03:05;20.70;22.30
67101;DHT22;54019;61.746;16.106;2023-01-08T09:05:34;20.60;22.30
67101;DHT22;54019;61.746;16.106;2023-01-08T09:08:00;20.60;22.30
67101;DHT22;54019;61.746;16.106;2023-01-08T09:10:27;20.60;22.40
67101;DHT22;54019;61.746;16.106;2023-01-08T09:12:53;20.60;22.50
67101;DHT22;54019;61.746;16.106;2023-01-08T09:15:19;20.50;22.60
67101;DHT22;54019;61.746;16.106;2023-01-08T09:17:46;20.50;22.60
67101;DHT22;54019;61.746;16.106;2023-01-08T09:20:16;20.50;22.60
67101;DHT22;54019;61.746;16.106;2023-01-08T09:22:42;20.50;22.50
67101;DHT22;54019;61.746;16.106;2023-01-08T09:25:08;20.50;22.60
67101;DHT22;54019;61.746;16.106;2023-01-08T09:27:35;20.60;22.50
67101;DHT22;54019;61.746;16.106;2023-01-08T09:30:01;20.60;22.40
67101;DHT22;54019;61.746;16.106;2023-01-08T09:32:27;20.60;22.40
67101;DHT22;54019;61.746;16.106;2023-01-08T09:34:52;20.70;22.40
67101;DHT22;54019;61.746;16.106;2023-01-08T09:37:18;20.70;22.30
67101;DHT22;54019;61.746;16.106;2023-01-08T09:39:44;20.80;22.20
67101;DHT22;54019;61.746;16.106;2023-01-08T09:42:10;20.70;22.20
67101;DHT22;54019;61.746;16.106;2023-01-08T09:44:41;20.70;22.10
67101;DHT22;54019;61.746;16.106;2023-01-08T09:47:20;20.70;22.30
67101;DHT22;54019;61.746;16.106;2023-01-08T09:49:47;20.70;22.20
67101;DHT22;54019;61.746;16.106;2023-01-08T09:52:15;20.70;22.30
67101;DHT22;54019;61.746;16.106;2023-01-08T09:54:40;20.70;22.30
67101;DHT22;54019;61.746;16.106;2023-01-08T09:57:09;20.60;22.40
67101;DHT22;54019;61.746;16.106;2023-01-08T09:59:39;20.60;22.30
67101;DHT22;54019;61.746;16.106;2023-01-08T10:02:12;20.60;22.40
67101;DHT22;54019;61.746;16.106;2023-01-08T10:04:38;20.60;22.50
67101;DHT22;54019;61.746;16.106;2023-01-08T10:07:10;20.50;22.50
67101;DHT22;54019;61.746;16.106;2023-01-08T10:09:36;20.50;22.50
67101;DHT22;54019;61.746;16.106;2023-01-08T10:12:04;20.50;22.50
67101;DHT22;54019;61.746;16.106;2023-01-08T10:14:33;20.60;22.40
67101;DHT22;54019;61.746;16.106;2023-01-08T10:17:04;20.60;22.40
67101;DHT22;54019;61.746;16.106;2023-01-08T10:19:32;20.60;22.50
67101;DHT22;54019;61.746;16.106;2023-01-08T10:21:58;20.70;22.40
67101;DHT22;54019;61.746;16.106;2023-01-08T10:24:31;20.70;22.30
67101;DHT22;54019;61.746;16.106;2023-01-08T10:27:05;20.80;22.20
67101;DHT22;54019;61.746;16.106;2023-01-08T10:29:31;20.80;22.20
67101;DHT22;54019;61.746;16.106;2023-01-08T10:31:57;20.80;22.20
67101;DHT22;54019;61.746;16.106;2023-01-08T10:34:40;20.80;22.20
67101;DHT22;54019;61.746;16.106;2023-01-08T10:37:14;20.80;22.30
67101;DHT22;54019;61.746;16.106;2023-01-08T10:39:45;20.70;22.30
67101;DHT22;54019;61.746;16.106;2023-01-08T10:42:11;20.70;22.40
67101;DHT22;54019;61.746;16.106;2023-01-08T10:44:38;20.70;22.50
67101;DHT22;54019;61.746;16.106;2023-01-08T10:47:04;20.60;22.40
67101;DHT22;54019;61.746;16.106;2023-01-08T10:49:34;20.60;22.50
67101;DHT22;54019;61.746;16.106;2023-01-08T10:52:00;20.60;22.60
67101;DHT22;54019;61.746;16.106;2023-01-08T10:54:32;20.60;22.60
67101;DHT22;54019;61.746;16.106;2023-01-08T10:56:59;20.50;22.60
67101;DHT22;54019;61.746;16.106;2023-01-08T10:59:25;20.50;22.60
67101;DHT22;54019;61.746;16.106;2023-01-08T11:01:52;20.60;22.60
67101;DHT22;54019;61.746;16.106;2023-01-08T11:04:22;20.60;22.60
67101;DHT22;54019;61.746;16.106;2023-01-08T11:06:49;20.70;22.60
67101;DHT22;54019;61.746;16.106;2023-01-08T11:09:21;20.70;22.40
67101;DHT22;54019;61.746;16.106;2023-01-08T11:11:47;20.80;22.40
67101;DHT22;54019;61.746;16.106;2023-01-08T11:14:17;20.80;22.40
67101;DHT22;54019;61.746;16.106;2023-01-08T11:16:45;20.80;22.40
67101;DHT22;54019;61.746;16.106;2023-01-08T11:19:16;20.80;22.30
67101;DHT22;54019;61.746;16.106;2023-01-08T11:21:55;20.80;22.30
67101;DHT22;54019;61.746;16.106;2023-01-08T11:24:24;20.80;22.40
67101;DHT22;54019;61.746;16.106;2023-01-08T11:26:53;20.80;22.40
67101;DHT22;54019;61.746;16.106;2023-01-08T11:29:23;20.70;22.40
67101;DHT22;54019;61.746;16.106;2023-01-08T11:31:56;20.70;22.50
67101;DHT22;54019;61.746;16.106;2023-01-08T11:34:27;20.70;22.60
67101;DHT22;54019;61.746;16.106;2023-01-08T11:37:02;20.70;22.60
67101;DHT22;54019;61.746;16.106;2023-01-08T11:39:30;20.60;22.70
67101;DHT22;54019;61.746;16.106;2023-01-08T11:42:13;20.60;22.60
67101;DHT22;54019;61.746;16.106;2023-01-08T11:44:52;20.60;22.70
67101;DHT22;54019;61.746;16.106;2023-01-08T11:47:40;20.60;22.60
67101;DHT22;54019;61.746;16.106;2023-01-08T11:50:18;20.60;22.70
67101;DHT22;54019;61.746;16.106;2023-01-08T11:53:02;20.60;22.70
67101;DHT22;54019;61.746;16.106;2023-01-08T11:55:40;20.60;22.60
67101;DHT22;54019;61.746;16.106;2023-01-08T11:58:22;20.70;22.60
67101;DHT22;54019;61.746;16.106;2023-01-08T12:01:14;20.80;22.50
67101;DHT22;54019;61.746;16.106;2023-01-08T12:03:47;20.80;22.30
67101;DHT22;54019;61.746;16.106;2023-01-08T12:06:26;20.80;22.30
67101;DHT22;54019;61.746;16.106;2023-01-08T12:09:01;20.80;22.40
67101;DHT22;54019;61.746;16.106;2023-01-08T12:11:38;20.80;22.30
67101;DHT22;54019;61.746;16.106;2023-01-08T12:14:23;20.80;22.40
67101;DHT22;54019;61.746;16.106;2023-01-08T12:17:20;20.80;22.50
67101;DHT22;54019;61.746;16.106;2023-01-08T12:20:03;20.80;22.60
67101;DHT22;54019;61.746;16.106;2023-01-08T12:22:41;20.80;22.50
67101;DHT22;54019;61.746;16.106;2023-01-08T12:25:21;20.70;22.60
67101;DHT22;54019;61.746;16.106;2023-01-08T12:28:01;20.70;22.70
67101;DHT22;54019;61.746;16.106;2023-01-08T12:30:38;20.70;22.70
67101;DHT22;54019;61.746;16.106;2023-01-08T12:33:12;20.60;22.70
67101;DHT22;54019;61.746;16.106;2023-01-08T12:35:43;20.60;22.70
67101;DHT22;54019;61.746;16.106;2023-01-08T12:38:12;20.60;22.70
67101;DHT22;54019;61.746;16.106;2023-01-08T12:40:44;20.60;22.80
67101;DHT22;54019;61.746;16.106;2023-01-08T12:43:14;20.60;22.60
67101;DHT22;54019;61.746;16.106;2023-01-08T12:45:44;20.60;22.50
67101;DHT22;54019;61.746;16.106;2023-01-08T12:48:15;20.70;22.60
67101;DHT22;54019;61.746;16.106;2023-01-08T12:50:49;20.70;22.50
67101;DHT22;54019;61.746;16.106;2023-01-08T12:53:24;20.80;22.40
67101;DHT22;54019;61.746;16.106;2023-01-08T12:56:01;20.90;22.40
67101;DHT22;54019;61.746;16.106;2023-01-08T12:58:33;20.90;22.50
67101;DHT22;54019;61.746;16.106;2023-01-08T13:01:15;20.90;22.50
67101;DHT22;54019;61.746;16.106;2023-01-08T13:03:46;20.80;22.40
67101;DHT22;54019;61.746;16.106;2023-01-08T13:06:15;20.80;22.50
67101;DHT22;54019;61.746;16.106;2023-01-08T13:08:47;20.70;22.60
67101;DHT22;54019;61.746;16.106;2023-01-08T13:11:23;20.70;22.70
67101;DHT22;54019;61.746;16.106;2023-01-08T13:13:58;20.70;22.70
67101;DHT22;54019;61.746;16.106;2023-01-08T13:16:24;20.70;22.70
67101;DHT22;54019;61.746;16.106;2023-01-08T13:18:52;20.60;22.70
67101;DHT22;54019;61.746;16.106;2023-01-08T13:21:27;20.60;22.70
67101;DHT22;54019;61.746;16.106;2023-01-08T13:23:59;20.60;22.70
67101;DHT22;54019;61.746;16.106;2023-01-08T13:26:29;20.50;22.80
67101;DHT22;54019;61.746;16.106;2023-01-08T13:29:06;20.60;22.80
67101;DHT22;54019;61.746;16.106;2023-01-08T13:31:38;20.60;22.80
67101;DHT22;54019;61.746;16.106;2023-01-08T13:34:20;20.70;22.70
67101;DHT22;54019;61.746;16.106;2023-01-08T13:36:55;20.70;22.70
67101;DHT22;54019;61.746;16.106;2023-01-08T13:39:22;20.80;22.60
67101;DHT22;54019;61.746;16.106;2023-01-08T13:44:47;20.80;22.50
67101;DHT22;54019;61.746;16.106;2023-01-08T13:47:21;20.80;22.60
67101;DHT22;54019;61.746;16.106;2023-01-08T13:49:51;20.80;22.50
67101;DHT22;54019;61.746;16.106;2023-01-08T13:52:39;20.80;22.60
67101;DHT22;54019;61.746;16.106;2023-01-08T13:55:14;20.80;22.60
67101;DHT22;54019;61.746;16.106;2023-01-08T13:57:44;20.70;22.70
67101;DHT22;54019;61.746;16.106;2023-01-08T14:00:17;20.70;22.70
67101;DHT22;54019;61.746;16.106;2023-01-08T14:02:45;20.70;22.70
67101;DHT22;54019;61.746;16.106;2023-01-08T14:05:19;20.60;22.70
67101;DHT22;54019;61.746;16.106;2023-01-08T14:07:45;20.60;22.80
67101;DHT22;54019;61.746;16.106;2023-01-08T14:10:12;20.60;22.90
67101;DHT22;54019;61.746;16.106;2023-01-08T14:12:39;20.60;22.90
67101;DHT22;54019;61.746;16.106;2023-01-08T14:15:11;20.50;22.90
67101;DHT22;54019;61.746;16.106;2023-01-08T14:17:42;20.60;22.90
67101;DHT22;54019;61.746;16.106;2023-01-08T14:20:10;20.60;22.90
67101;DHT22;54019;61.746;16.106;2023-01-08T14:22:36;20.60;22.80
67101;DHT22;54019;61.746;16.106;2023-01-08T14:25:06;20.60;22.70
67101;DHT22;54019;61.746;16.106;2023-01-08T14:27:33;20.70;22.80
67101;DHT22;54019;61.746;16.106;2023-01-08T14:29:59;20.70;22.80
67101;DHT22;54019;61.746;16.106;2023-01-08T14:32:27;20.80;22.70
67101;DHT22;54019;61.746;16.106;2023-01-08T14:34:54;20.80;22.70
67101;DHT22;54019;61.746;16.106;2023-01-08T14:37:21;20.80;22.70
67101;DHT22;54019;61.746;16.106;2023-01-08T14:39:47;20.70;22.80
67101;DHT22;54019;61.746;16.106;2023-01-08T14:42:16;20.80;22.70
67101;DHT22;54019;61.746;16.106;2023-01-08T14:44:43;20.80;22.70
67101;DHT22;54019;61.746;16.106;2023-01-08T14:47:15;20.80;22.70
67101;DHT22;54019;61.746;16.106;2023-01-08T14:49:46;20.70;22.80
67101;DHT22;54019;61.746;16.106;2023-01-08T14:52:13;20.70;22.90
67101;DHT22;54019;61.746;16.106;2023-01-08T14:54:39;20.60;22.90
67101;DHT22;54019;61.746;16.106;2023-01-08T14:57:05;20.60;22.90
67101;DHT22;54019;61.746;16.106;2023-01-08T14:59:33;20.60;23.00
67101;DHT22;54019;61.746;16.106;2023-01-08T15:02:01;20.60;23.00
67101;DHT22;54019;61.746;16.106;2023-01-08T15:04:28;20.50;23.00
67101;DHT22;54019;61.746;16.106;2023-01-08T15:07:06;20.50;23.00
67101;DHT22;54019;61.746;16.106;2023-01-08T15:09:34;20.60;23.00
67101;DHT22;54019;61.746;16.106;2023-01-08T15:12:01;20.60;22.90
67101;DHT22;54019;61.746;16.106;2023-01-08T15:14:29;20.60;22.90
67101;DHT22;54019;61.746;16.106;2023-01-08T15:16:56;20.70;22.90
67101;DHT22;54019;61.746;16.106;2023-01-08T15:19:24;20.80;22.70
67101;DHT22;54019;61.746;16.106;2023-01-08T15:21:52;20.80;22.70
67101;DHT22;54019;61.746;16.106;2023-01-08T15:24:22;20.80;22.70
67101;DHT22;54019;61.746;16.106;2023-01-08T15:26:49;20.80;22.70